createdAt,value
2023-11-30T00:00:48.691Z,9.52
2023-11-30T00:05:50.184Z,8.15
2023-11-30T00:10:51.639Z,8.98
2023-11-30T00:15:53.031Z,8.30
2023-11-30T00:20:54.500Z,8.52
2023-11-30T00:25:56.055Z,9.07
2023-11-30T00:30:57.874Z,11.00
2023-11-30T00:35:59.267Z,10.20
2023-11-30T00:41:00.796Z,10.23
2023-11-30T00:46:09.384Z,8.75
2023-11-30T00:51:12.482Z,8.57
2023-11-30T00:56:14.491Z,10.25
2023-11-30T01:01:15.960Z,10.55
2023-11-30T01:06:17.380Z,9.93
2023-11-30T01:11:18.931Z,10.25
2023-11-30T01:16:20.420Z,10.23
2023-11-30T01:21:21.923Z,8.88
2023-11-30T01:26:23.706Z,8.30
2023-11-30T01:31:25.116Z,9.40
2023-11-30T01:36:26.611Z,9.60
2023-11-30T01:41:28.026Z,8.10
2023-11-30T01:46:31.364Z,9.30
2023-11-30T01:51:33.487Z,8.95
2023-11-30T01:56:38.447Z,9.40
2023-11-30T02:01:41.320Z,9.57
2023-11-30T02:06:46.786Z,9.32
2023-11-30T02:11:48.229Z,9.15
2023-11-30T02:16:49.669Z,10.02
2023-11-30T02:21:52.313Z,9.50
2023-11-30T02:26:53.834Z,10.15
2023-11-30T02:31:55.225Z,9.98
2023-11-30T02:36:56.761Z,9.48
2023-11-30T02:41:58.188Z,9.82
2023-11-30T02:46:59.579Z,10.40
2023-11-30T02:52:01.050Z,10.10
2023-11-30T02:57:02.472Z,8.77
2023-11-30T03:02:04.556Z,9.73
2023-11-30T03:07:06.079Z,9.32
2023-11-30T03:12:08.185Z,9.55
2023-11-30T03:17:09.677Z,9.32
2023-11-30T03:22:11.297Z,11.10
2023-11-30T03:27:12.792Z,10.20
2023-11-30T03:32:14.339Z,10.55
2023-11-30T03:37:15.851Z,10.55
2023-11-30T03:42:17.307Z,11.02
2023-11-30T03:47:18.823Z,9.48
2023-11-30T03:52:20.273Z,9.52
2023-11-30T03:57:21.775Z,9.77
2023-11-30T04:02:23.272Z,9.70
2023-11-30T04:07:24.702Z,9.27
2023-11-30T04:12:26.193Z,9.18
2023-11-30T04:17:27.628Z,9.98
2023-11-30T04:22:29.134Z,10.85
2023-11-30T04:27:30.648Z,8.90
2023-11-30T04:32:32.194Z,9.80
2023-11-30T04:37:33.557Z,9.63
2023-11-30T04:42:35.086Z,9.60
2023-11-30T04:47:36.540Z,9.32
2023-11-30T04:52:38.029Z,9.90
2023-11-30T04:57:39.434Z,9.60
2023-11-30T05:02:50.803Z,9.60
2023-11-30T05:07:52.797Z,10.52
2023-11-30T05:12:54.300Z,10.82
2023-11-30T05:17:55.781Z,9.75
2023-11-30T05:22:57.240Z,10.57
2023-11-30T05:27:59.643Z,9.18
2023-11-30T05:33:01.227Z,12.05
2023-11-30T05:38:03.105Z,12.23
2023-11-30T05:43:04.893Z,10.00
2023-11-30T05:48:06.749Z,12.05
2023-11-30T05:53:08.230Z,10.80
2023-11-30T05:58:09.604Z,10.70
2023-11-30T06:03:11.231Z,10.02
2023-11-30T06:08:12.692Z,10.93
2023-11-30T06:13:14.216Z,12.55
2023-11-30T06:18:15.866Z,11.68
2023-11-30T06:23:17.574Z,10.77
2023-11-30T06:28:19.393Z,12.90
2023-11-30T06:33:21.122Z,9.93
2023-11-30T06:38:22.529Z,10.98
2023-11-30T06:43:24.047Z,12.07
2023-11-30T06:48:25.663Z,9.45
2023-11-30T06:53:27.314Z,11.18
2023-11-30T06:58:28.902Z,10.85
2023-11-30T07:03:31.160Z,10.95
2023-11-30T07:08:32.904Z,10.93
2023-11-30T07:13:34.514Z,10.93
2023-11-30T07:18:36.204Z,11.25
2023-11-30T07:23:38.130Z,11.23
2023-11-30T07:28:40.070Z,11.25
2023-11-30T07:33:41.707Z,11.05
2023-11-30T07:38:43.371Z,12.63
2023-11-30T07:43:45.093Z,9.82
2023-11-30T07:48:50.572Z,10.05
2023-11-30T07:53:52.599Z,10.43
2023-11-30T07:58:54.235Z,10.75
2023-11-30T08:03:56.112Z,11.20
2023-11-30T08:08:57.769Z,9.98
2023-11-30T08:13:59.357Z,9.98
2023-11-30T08:19:01.130Z,11.57
2023-11-30T08:24:06.077Z,9.90
2023-11-30T08:29:07.718Z,9.65
2023-11-30T08:34:10.168Z,9.88
2023-11-30T08:39:11.797Z,10.18
2023-11-30T08:44:13.443Z,11.38
2023-11-30T08:49:15.392Z,9.38
2023-11-30T08:54:17.065Z,8.45
2023-11-30T08:59:19.356Z,10.15
2023-11-30T09:04:24.067Z,9.65
2023-11-30T09:09:25.533Z,8.63
2023-11-30T09:14:27.047Z,8.90
2023-11-30T09:19:28.596Z,10.02
2023-11-30T09:24:33.105Z,8.93
2023-11-30T09:29:36.659Z,7.65
2023-11-30T09:34:38.194Z,8.43
2023-11-30T09:39:39.837Z,10.05
2023-11-30T09:44:41.284Z,8.85
2023-11-30T09:49:43.092Z,8.05
2023-11-30T09:54:44.543Z,7.40
2023-11-30T09:59:45.980Z,6.80
2023-11-30T10:04:47.379Z,10.57
2023-11-30T10:09:49.140Z,7.85
2023-11-30T10:14:59.978Z,7.55
2023-11-30T10:20:01.446Z,9.30
2023-11-30T10:25:02.922Z,8.38
2023-11-30T10:30:05.216Z,7.22
2023-11-30T10:35:16.870Z,7.15
2023-11-30T10:40:19.210Z,6.35
2023-11-30T10:45:21.579Z,7.68
2023-11-30T10:50:23.466Z,7.13
2023-11-30T10:55:50.098Z,9.70
2023-11-30T11:00:58.154Z,11.50
2023-11-30T11:06:04.013Z,7.25
2023-11-30T11:11:11.278Z,9.80
2023-11-30T11:16:12.864Z,8.30
2023-11-30T11:21:25.719Z,7.47
2023-11-30T11:26:27.307Z,7.57
2023-11-30T11:31:28.875Z,7.25
2023-11-30T11:36:30.473Z,6.35
2023-11-30T11:41:32.664Z,5.88
2023-11-30T11:46:34.912Z,7.43
2023-11-30T11:51:46.519Z,7.72
2023-11-30T11:56:52.646Z,8.25
2023-11-30T12:01:55.417Z,7.28
2023-11-30T12:06:57.989Z,7.65
2023-11-30T12:11:59.509Z,7.55
2023-11-30T12:17:04.296Z,6.85
2023-11-30T12:22:05.846Z,8.15
2023-11-30T12:27:07.430Z,6.57
2023-11-30T12:32:08.871Z,7.10
2023-11-30T12:37:13.223Z,5.53
2023-11-30T12:42:14.730Z,6.75
2023-11-30T12:47:16.420Z,5.63
2023-11-30T12:52:17.796Z,6.25
2023-11-30T12:57:20.232Z,7.57
2023-11-30T13:02:21.697Z,7.45
2023-11-30T13:07:23.493Z,7.40
2023-11-30T13:12:25.080Z,6.97
2023-11-30T13:17:26.599Z,6.70
2023-11-30T13:22:28.122Z,6.78
2023-11-30T13:27:29.586Z,6.80
2023-11-30T13:32:34.539Z,6.38
2023-11-30T13:37:44.609Z,7.57
2023-11-30T13:42:46.380Z,7.40
2023-11-30T13:47:47.836Z,6.75
2023-11-30T13:52:49.446Z,6.22
2023-11-30T13:57:51.174Z,6.63
2023-11-30T14:02:52.633Z,6.03
2023-11-30T14:07:55.178Z,6.60
2023-11-30T14:12:56.644Z,6.60
2023-11-30T14:17:58.128Z,5.82
2023-11-30T14:22:59.644Z,7.53
2023-11-30T14:28:05.294Z,8.45
2023-11-30T14:33:14.152Z,9.45
2023-11-30T14:38:15.783Z,8.23
2023-11-30T14:43:17.217Z,7.60
2023-11-30T14:48:18.748Z,8.65
2023-11-30T14:53:20.660Z,7.68
2023-11-30T14:58:22.069Z,6.40
2023-11-30T15:03:23.510Z,7.53
2023-11-30T15:08:25.106Z,7.60
2023-11-30T15:13:26.530Z,7.90
2023-11-30T15:18:28.031Z,8.55
2023-11-30T15:23:29.454Z,8.27
2023-11-30T15:28:30.871Z,8.23
2023-11-30T15:33:32.863Z,7.97
2023-11-30T15:38:34.406Z,7.68
2023-11-30T15:43:36.429Z,7.47
2023-11-30T15:48:38.005Z,8.80
2023-11-30T15:53:39.586Z,9.25
2023-11-30T15:58:41.084Z,8.45
2023-11-30T16:03:42.839Z,8.23
2023-11-30T16:08:44.351Z,9.27
2023-11-30T16:13:46.321Z,10.40
2023-11-30T16:18:47.759Z,9.15
2023-11-30T16:23:49.705Z,9.82
2023-11-30T16:28:51.259Z,9.23
2023-11-30T16:33:52.817Z,10.90
2023-11-30T16:38:54.336Z,9.85
2023-11-30T16:43:55.756Z,10.73
2023-11-30T16:48:58.838Z,9.70
2023-11-30T16:54:00.447Z,10.45
2023-11-30T16:59:02.022Z,10.30
2023-11-30T17:04:06.757Z,10.35
2023-11-30T17:09:08.376Z,10.35
2023-11-30T17:14:09.819Z,10.18
2023-11-30T17:19:11.311Z,10.07
2023-11-30T17:24:12.878Z,9.90
2023-11-30T17:29:14.342Z,8.70
2023-11-30T17:34:15.937Z,10.80
2023-11-30T17:39:17.949Z,11.75
2023-11-30T17:44:19.784Z,10.38
2023-11-30T17:49:21.155Z,10.60
2023-11-30T17:54:22.647Z,10.55
2023-11-30T17:59:24.471Z,11.73
2023-11-30T18:04:25.893Z,11.82
2023-11-30T18:09:28.043Z,12.50
2023-11-30T18:14:29.740Z,11.18
2023-11-30T18:19:32.245Z,11.27
2023-11-30T18:24:33.687Z,11.80
2023-11-30T18:29:35.213Z,12.38
2023-11-30T18:34:36.691Z,11.85
2023-11-30T18:39:38.160Z,11.80
2023-11-30T18:44:39.632Z,12.48
2023-11-30T18:49:41.929Z,13.52
2023-11-30T18:54:43.960Z,11.82
2023-11-30T18:59:45.406Z,12.02
2023-11-30T19:04:46.838Z,11.48
2023-11-30T19:09:48.234Z,10.25
2023-11-30T19:14:49.644Z,11.00
2023-11-30T19:19:51.133Z,10.85
2023-11-30T19:24:52.576Z,10.77
2023-11-30T19:29:54.024Z,10.82
2023-11-30T19:34:55.462Z,10.88
2023-11-30T19:39:58.266Z,10.98
2023-11-30T19:45:00.433Z,9.85
2023-11-30T19:50:02.256Z,11.35
2023-11-30T19:55:04.722Z,14.05
2023-11-30T20:00:06.773Z,12.77
2023-11-30T20:05:08.405Z,12.80
2023-11-30T20:10:10.076Z,11.43
2023-11-30T20:15:11.911Z,12.45
2023-11-30T20:20:13.572Z,12.25
2023-11-30T20:25:15.007Z,12.27
2023-11-30T20:30:16.551Z,13.15
2023-11-30T20:35:18.005Z,13.80
2023-11-30T20:40:20.199Z,12.40
2023-11-30T20:45:21.716Z,11.48
2023-11-30T20:50:23.659Z,13.40
2023-11-30T20:55:25.177Z,12.90
2023-11-30T21:00:26.686Z,17.42
2023-11-30T21:05:28.643Z,18.25
2023-11-30T21:10:30.136Z,21.00
2023-11-30T21:15:31.601Z,22.58
2023-11-30T21:20:33.213Z,23.52
2023-11-30T21:25:34.648Z,22.60
2023-11-30T21:30:36.164Z,26.35
2023-11-30T21:35:37.742Z,27.00
2023-11-30T21:40:39.127Z,25.35
2023-11-30T21:45:40.711Z,26.10
2023-11-30T21:50:42.702Z,27.38
2023-11-30T21:55:44.188Z,25.25
2023-11-30T22:00:45.808Z,24.35
2023-11-30T22:05:47.378Z,23.45
2023-11-30T22:10:49.028Z,22.77
2023-11-30T22:15:57.211Z,22.95
2023-11-30T22:21:05.429Z,22.85
2023-11-30T22:26:07.028Z,21.73
2023-11-30T22:31:08.663Z,20.88
2023-11-30T22:36:10.648Z,22.73
2023-11-30T22:41:12.129Z,21.73
2023-11-30T22:46:17.642Z,25.80
2023-11-30T22:51:19.423Z,24.90
2023-11-30T22:56:23.487Z,28.40
2023-11-30T23:01:25.705Z,23.58
2023-11-30T23:06:27.271Z,22.70
2023-11-30T23:11:28.761Z,22.08
2023-11-30T23:16:30.269Z,16.85
2023-11-30T23:21:31.782Z,15.82
2023-11-30T23:26:33.731Z,14.10
2023-11-30T23:31:35.266Z,14.82
2023-11-30T23:36:36.800Z,15.23
2023-11-30T23:41:38.827Z,14.95
2023-11-30T23:46:40.320Z,16.50
2023-11-30T23:51:42.201Z,14.38
2023-11-30T23:56:43.673Z,14.13
